Time;durP1;ratioP1;P1;durP2;ratioP2;P2;SDS_P1;SDS_P2;PMS_P1;PMS_P2;Temp;Humidity;BMP_temperature;BMP_pressure;BME280_temperature;BME280_humidity;BME280_pressure;Samples;Min_cycle;Max_cycle;Signal;HPM_P1;HPM_P2
2022/03/27 00:01:56;;;;;;;;;;;8.10;99.90;;;;;;5067520;28;19916;-56
2022/03/27 00:04:21;;;;;;;;;;;8.10;99.90;;;;;;5068444;28;19928;-53
2022/03/27 00:06:47;;;;;;;;;;;8.00;99.90;;;;;;5067313;28;20369;-50
2022/03/27 00:09:12;;;;;;;;;;;8.00;99.90;;;;;;5068565;28;19911;-55
2022/03/27 00:11:38;;;;;;;;;;;7.90;99.90;;;;;;5068106;28;19909;-51
2022/03/27 00:14:04;;;;;;;;;;;7.90;99.90;;;;;;5068690;28;19943;-50
2022/03/27 00:16:30;;;;;;;;;;;7.80;99.90;;;;;;5067998;28;19908;-56
2022/03/27 00:18:56;;;;;;;;;;;7.80;99.90;;;;;;5068224;28;19912;-57
2022/03/27 00:21:22;;;;;;;;;;;7.70;99.90;;;;;;5067353;28;20135;-50
2022/03/27 00:23:47;;;;;;;;;;;7.70;99.90;;;;;;5068011;28;20312;-52
2022/03/27 00:26:13;;;;;;;;;;;7.70;99.90;;;;;;5067490;28;19912;-55
2022/03/27 00:28:39;;;;;;;;;;;7.60;99.90;;;;;;5067822;28;20271;-55
2022/03/27 00:31:05;;;;;;;;;;;7.60;99.90;;;;;;5067047;28;19935;-53
2022/03/27 00:33:32;;;;;;;;;;;7.60;99.90;;;;;;5068390;28;19999;-54
2022/03/27 00:35:58;;;;;;;;;;;7.50;99.90;;;;;;5067497;28;19980;-52
2022/03/27 00:38:24;;;;;;;;;;;7.50;99.90;;;;;;5068052;28;19989;-54
2022/03/27 00:40:50;;;;;;;;;;;7.40;99.90;;;;;;5067225;28;19995;-54
2022/03/27 00:43:16;;;;;;;;;;;7.40;99.90;;;;;;5067993;28;19995;-55
2022/03/27 00:45:41;;;;;;;;;;;7.40;99.90;;;;;;5067211;28;19913;-53
2022/03/27 00:48:07;;;;;;;;;;;7.40;99.90;;;;;;5067266;28;20373;-50
2022/03/27 00:50:32;;;;;;;;;;;7.40;99.90;;;;;;5068014;28;20421;-55
2022/03/27 00:52:58;;;;;;;;;;;7.50;99.90;;;;;;5067040;28;19919;-55
2022/03/27 00:55:23;;;;;;;;;;;7.60;99.90;;;;;;5068134;28;20003;-50
2022/03/27 00:57:49;;;;;;;;;;;7.60;99.90;;;;;;5066238;28;19995;-55
2022/03/27 01:00:18;;;;;;;;;;;7.70;99.90;;;;;;5067536;28;19912;-56
2022/03/27 01:02:44;;;;;;;;;;;7.80;99.90;;;;;;5066827;28;19908;-55
2022/03/27 01:05:13;;;;;;;;;;;7.80;99.90;;;;;;5067252;28;20320;-52
2022/03/27 01:07:39;;;;;;;;;;;7.80;99.90;;;;;;5066931;28;19908;-53
2022/03/27 01:10:05;;;;;;;;;;;7.80;99.90;;;;;;5066479;28;19904;-53
2022/03/27 01:12:39;;;;;;;;;;;7.80;99.90;;;;;;5067588;28;19973;-54
2022/03/27 01:15:06;;;;;;;;;;;7.80;99.90;;;;;;5067266;28;20053;-51
2022/03/27 01:17:33;;;;;;;;;;;7.70;99.90;;;;;;5067451;28;19914;-56
2022/03/27 01:20:03;;;;;;;;;;;7.70;99.90;;;;;;5067758;28;20101;-49
2022/03/27 01:22:29;;;;;;;;;;;7.70;99.90;;;;;;5066548;28;19909;-50
2022/03/27 01:24:54;;;;;;;;;;;7.70;99.90;;;;;;5067574;28;19924;-55
2022/03/27 01:27:20;;;;;;;;;;;7.70;99.90;;;;;;5066758;28;20011;-55
2022/03/27 01:29:46;;;;;;;;;;;7.60;99.90;;;;;;5067281;28;19919;-56
2022/03/27 01:32:14;;;;;;;;;;;7.60;99.90;;;;;;5065838;28;19904;-52
2022/03/27 01:34:44;;;;;;;;;;;7.50;99.90;;;;;;5067118;28;20384;-53
2022/03/27 01:37:10;;;;;;;;;;;7.50;99.90;;;;;;5066218;28;19953;-52
2022/03/27 01:39:36;;;;;;;;;;;7.50;99.90;;;;;;5067229;28;19920;-53
2022/03/27 01:42:03;;;;;;;;;;;7.50;99.90;;;;;;5065498;28;19943;-54
2022/03/27 01:44:28;;;;;;;;;;;7.50;99.90;;;;;;5066577;28;19961;-54
2022/03/27 01:46:55;;;;;;;;;;;7.50;99.90;;;;;;5066388;28;19913;-55
2022/03/27 01:49:22;;;;;;;;;;;7.60;99.90;;;;;;5067046;28;20003;-52
2022/03/27 01:51:47;;;;;;;;;;;7.70;99.90;;;;;;5065712;28;20383;-49
2022/03/27 01:54:13;;;;;;;;;;;7.70;99.90;;;;;;5066974;28;19995;-51
2022/03/27 01:56:39;;;;;;;;;;;7.80;99.90;;;;;;5066139;28;19909;-52
2022/03/27 01:59:06;;;;;;;;;;;7.80;99.90;;;;;;5066292;28;19912;-54
2022/03/27 02:01:32;;;;;;;;;;;7.70;99.90;;;;;;5066070;28;20032;-53
2022/03/27 02:03:57;;;;;;;;;;;7.70;99.90;;;;;;5066218;28;19912;-54
2022/03/27 02:06:23;;;;;;;;;;;7.70;99.90;;;;;;5065636;28;20308;-54
2022/03/27 02:08:49;;;;;;;;;;;7.60;99.90;;;;;;5066167;28;19905;-52
2022/03/27 02:11:15;;;;;;;;;;;7.60;99.90;;;;;;5065390;28;19919;-53
2022/03/27 02:13:41;;;;;;;;;;;7.60;99.90;;;;;;5065791;28;19904;-53
2022/03/27 02:16:06;;;;;;;;;;;7.60;99.90;;;;;;5065568;28;20007;-53
2022/03/27 02:18:32;;;;;;;;;;;7.50;99.90;;;;;;5066118;28;19912;-54
2022/03/27 02:20:58;;;;;;;;;;;7.60;99.90;;;;;;5065499;28;19912;-54
2022/03/27 02:23:24;;;;;;;;;;;7.60;99.90;;;;;;5065713;28;20280;-53
2022/03/27 02:25:50;;;;;;;;;;;7.60;99.90;;;;;;5065625;28;19966;-54
2022/03/27 02:28:16;;;;;;;;;;;7.60;99.90;;;;;;5066143;28;19916;-53
2022/03/27 02:30:42;;;;;;;;;;;7.60;99.90;;;;;;5065467;28;19913;-53
2022/03/27 02:33:07;;;;;;;;;;;7.60;99.90;;;;;;5066447;28;20589;-51
2022/03/27 02:35:33;;;;;;;;;;;7.60;99.90;;;;;;5065813;28;19919;-52
2022/03/27 02:37:59;;;;;;;;;;;7.50;99.90;;;;;;5066342;28;19919;-50
2022/03/27 02:40:24;;;;;;;;;;;7.50;99.90;;;;;;5065339;28;20004;-52
2022/03/27 02:42:50;;;;;;;;;;;7.50;99.90;;;;;;5065863;28;19905;-50
2022/03/27 02:45:15;;;;;;;;;;;7.50;99.90;;;;;;5066087;28;19940;-51
2022/03/27 02:47:41;;;;;;;;;;;7.50;99.90;;;;;;5065935;28;19944;-52
2022/03/27 02:50:06;;;;;;;;;;;7.50;99.90;;;;;;5065332;28;19908;-50
2022/03/27 02:52:33;;;;;;;;;;;7.50;99.90;;;;;;5066341;28;19941;-53
2022/03/27 02:54:58;;;;;;;;;;;7.50;99.90;;;;;;5065599;28;19912;-50
2022/03/27 02:57:24;;;;;;;;;;;7.50;99.90;;;;;;5066143;28;19919;-53
2022/03/27 02:59:52;;;;;;;;;;;7.40;99.90;;;;;;5065730;28;19950;-52
2022/03/27 03:02:18;;;;;;;;;;;7.50;99.90;;;;;;5066021;28;19908;-50
2022/03/27 03:04:44;;;;;;;;;;;7.50;99.90;;;;;;5064042;28;20300;-53
2022/03/27 03:07:09;;;;;;;;;;;7.50;99.90;;;;;;5066179;28;19904;-51
2022/03/27 03:09:35;;;;;;;;;;;7.50;99.90;;;;;;5064563;28;19923;-50
2022/03/27 03:12:00;;;;;;;;;;;7.50;99.90;;;;;;5065875;28;19952;-51
2022/03/27 03:14:26;;;;;;;;;;;7.50;99.90;;;;;;5065654;28;19938;-51
2022/03/27 03:16:52;;;;;;;;;;;7.50;99.90;;;;;;5065775;28;19947;-51
2022/03/27 03:19:18;;;;;;;;;;;7.50;99.90;;;;;;5065803;28;19934;-49
2022/03/27 03:21:43;;;;;;;;;;;7.50;99.90;;;;;;5069119;28;19960;-51
2022/03/27 03:24:09;;;;;;;;;;;7.50;99.90;;;;;;5068622;28;20398;-52
2022/03/27 03:26:34;;;;;;;;;;;7.50;99.90;;;;;;5069663;28;19911;-50
2022/03/27 03:29:00;;;;;;;;;;;7.50;99.90;;;;;;5069062;28;19929;-50
2022/03/27 03:31:25;;;;;;;;;;;7.60;99.90;;;;;;5068879;28;19940;-50
2022/03/27 03:33:51;;;;;;;;;;;7.50;99.90;;;;;;5068981;28;20361;-51
2022/03/27 03:36:16;;;;;;;;;;;7.50;99.90;;;;;;5068929;28;20404;-50
2022/03/27 03:38:42;;;;;;;;;;;7.50;99.90;;;;;;5068866;28;19959;-50
2022/03/27 03:41:08;;;;;;;;;;;7.50;99.90;;;;;;5067892;28;19948;-51
2022/03/27 03:43:36;;;;;;;;;;;7.50;99.90;;;;;;5069195;28;19910;-50
2022/03/27 03:46:02;;;;;;;;;;;7.50;99.90;;;;;;5068866;28;20278;-52
2022/03/27 03:48:28;;;;;;;;;;;7.50;99.90;;;;;;5069394;28;20000;-51
2022/03/27 03:50:53;;;;;;;;;;;7.50;99.90;;;;;;5068682;28;20428;-54
2022/03/27 03:53:18;;;;;;;;;;;7.40;99.90;;;;;;5068687;28;20391;-54
2022/03/27 03:55:44;;;;;;;;;;;7.40;99.90;;;;;;5069476;28;19948;-54
2022/03/27 03:58:09;;;;;;;;;;;7.40;99.90;;;;;;5068182;28;19904;-55
2022/03/27 04:00:36;;;;;;;;;;;7.50;99.90;;;;;;5069494;28;19915;-55
2022/03/27 04:03:02;;;;;;;;;;;7.50;99.90;;;;;;5067871;28;19908;-55
2022/03/27 04:05:28;;;;;;;;;;;7.50;99.90;;;;;;5068750;28;19919;-56
2022/03/27 04:07:53;;;;;;;;;;;7.60;99.90;;;;;;5068104;28;19912;-53
2022/03/27 04:10:19;;;;;;;;;;;7.60;99.90;;;;;;5069003;28;19910;-56
2022/03/27 04:12:45;;;;;;;;;;;7.60;99.90;;;;;;5066727;28;19914;-55
2022/03/27 04:15:11;;;;;;;;;;;7.60;99.90;;;;;;5068876;28;19987;-55
2022/03/27 04:17:46;;;;;;;;;;;7.60;99.90;;;;;;5068153;28;19990;-55
2022/03/27 04:20:15;;;;;;;;;;;7.70;99.90;;;;;;5068610;28;20258;-54
2022/03/27 04:22:41;;;;;;;;;;;7.70;99.90;;;;;;5067462;28;20312;-56
2022/03/27 04:25:07;;;;;;;;;;;7.70;99.90;;;;;;5068241;28;19904;-53
2022/03/27 04:27:32;;;;;;;;;;;7.70;99.90;;;;;;5068009;28;19952;-54
2022/03/27 04:29:58;;;;;;;;;;;7.70;99.90;;;;;;5068142;28;19909;-54
2022/03/27 04:32:23;;;;;;;;;;;7.70;99.90;;;;;;5066457;28;19938;-55
2022/03/27 04:34:50;;;;;;;;;;;7.70;99.90;;;;;;5068209;28;20365;-54
2022/03/27 04:37:16;;;;;;;;;;;7.80;99.90;;;;;;5068257;28;20404;-53
2022/03/27 04:39:41;;;;;;;;;;;7.70;99.90;;;;;;5067941;28;20019;-55
2022/03/27 04:42:07;;;;;;;;;;;7.60;99.90;;;;;;5065787;28;19995;-54
2022/03/27 04:44:32;;;;;;;;;;;7.60;99.90;;;;;;5068401;28;20275;-55
2022/03/27 04:46:58;;;;;;;;;;;7.60;99.90;;;;;;5066969;28;19955;-55
2022/03/27 04:49:23;;;;;;;;;;;7.70;99.90;;;;;;5067892;28;20424;-52
2022/03/27 04:51:49;;;;;;;;;;;7.70;99.90;;;;;;5066410;28;19931;-56
2022/03/27 04:54:14;;;;;;;;;;;7.70;99.90;;;;;;5067528;28;19916;-56
2022/03/27 04:56:40;;;;;;;;;;;7.70;99.90;;;;;;5067238;28;19908;-52
2022/03/27 04:59:05;;;;;;;;;;;7.70;99.90;;;;;;5067288;28;20485;-56
2022/03/27 05:01:31;;;;;;;;;;;7.70;99.90;;;;;;5066562;28;19909;-53
2022/03/27 05:03:56;;;;;;;;;;;7.70;99.90;;;;;;5066226;28;19912;-56
2022/03/27 05:06:22;;;;;;;;;;;7.70;99.90;;;;;;5067444;28;19916;-56
2022/03/27 05:08:47;;;;;;;;;;;7.70;99.90;;;;;;5066186;28;19926;-56
2022/03/27 05:11:13;;;;;;;;;;;7.80;99.90;;;;;;5066984;28;20015;-54
2022/03/27 05:13:39;;;;;;;;;;;7.70;99.90;;;;;;5066421;28;20309;-56
2022/03/27 05:16:04;;;;;;;;;;;7.70;99.90;;;;;;5067498;28;20013;-56
2022/03/27 05:18:29;;;;;;;;;;;7.70;99.90;;;;;;5067394;28;19972;-56
2022/03/27 05:20:55;;;;;;;;;;;7.70;99.90;;;;;;5066853;28;20319;-56
2022/03/27 05:23:21;;;;;;;;;;;7.70;99.90;;;;;;5067074;28;20376;-55
2022/03/27 05:25:49;;;;;;;;;;;7.80;99.90;;;;;;5066726;28;19970;-55
2022/03/27 05:28:14;;;;;;;;;;;7.80;99.90;;;;;;5066958;28;19910;-56
2022/03/27 05:30:40;;;;;;;;;;;7.80;99.90;;;;;;5065953;28;20359;-53
2022/03/27 05:33:06;;;;;;;;;;;7.80;99.90;;;;;;5066608;28;19904;-55
2022/03/27 05:35:31;;;;;;;;;;;7.90;99.90;;;;;;5066221;28;19926;-56
2022/03/27 05:37:58;;;;;;;;;;;7.90;99.90;;;;;;5066582;28;19908;-56
2022/03/27 05:40:24;;;;;;;;;;;7.90;99.90;;;;;;5066370;28;20383;-55
2022/03/27 05:42:50;;;;;;;;;;;7.90;99.90;;;;;;5066165;28;19908;-56
2022/03/27 05:45:16;;;;;;;;;;;7.90;99.90;;;;;;5065863;28;19915;-56
2022/03/27 05:47:42;;;;;;;;;;;7.90;99.90;;;;;;5066659;28;19908;-55
2022/03/27 05:50:08;;;;;;;;;;;7.90;99.90;;;;;;5065882;28;19908;-56
2022/03/27 05:52:34;;;;;;;;;;;8.00;99.90;;;;;;5066283;28;19908;-55
2022/03/27 05:54:59;;;;;;;;;;;7.90;99.90;;;;;;5065979;28;19912;-55
2022/03/27 05:57:25;;;;;;;;;;;8.00;99.90;;;;;;5066524;28;20037;-55
2022/03/27 05:59:50;;;;;;;;;;;8.00;99.90;;;;;;5064857;28;19982;-56
2022/03/27 06:02:16;;;;;;;;;;;8.00;99.90;;;;;;5066581;28;19926;-55
2022/03/27 06:04:42;;;;;;;;;;;8.00;99.90;;;;;;5065542;28;19998;-55
2022/03/27 06:07:07;;;;;;;;;;;8.00;99.90;;;;;;5066167;28;19905;-56
2022/03/27 06:09:33;;;;;;;;;;;8.00;99.90;;;;;;5066306;28;20351;-53
2022/03/27 06:11:59;;;;;;;;;;;8.00;99.90;;;;;;5065353;28;19964;-55
2022/03/27 06:14:24;;;;;;;;;;;8.10;99.90;;;;;;5065612;28;20023;-54
2022/03/27 06:16:50;;;;;;;;;;;8.20;99.90;;;;;;5065102;28;20353;-55
2022/03/27 06:19:15;;;;;;;;;;;8.20;99.90;;;;;;5065433;28;20039;-52
2022/03/27 06:21:41;;;;;;;;;;;8.30;99.90;;;;;;5065760;28;19999;-54
2022/03/27 06:24:06;;;;;;;;;;;8.30;99.90;;;;;;5064567;28;19904;-54
2022/03/27 06:26:32;;;;;;;;;;;8.40;99.90;;;;;;5066057;28;19916;-56
2022/03/27 06:28:57;;;;;;;;;;;8.50;99.90;;;;;;5065157;28;19911;-55
2022/03/27 06:31:22;;;;;;;;;;;8.60;99.90;;;;;;5066439;28;20182;-55
2022/03/27 06:33:48;;;;;;;;;;;8.60;99.90;;;;;;5065403;28;19905;-56
2022/03/27 06:36:13;;;;;;;;;;;8.60;99.90;;;;;;5065698;28;19919;-53
2022/03/27 06:38:39;;;;;;;;;;;8.60;99.90;;;;;;5065548;28;19905;-52
2022/03/27 06:41:06;;;;;;;;;;;8.60;99.90;;;;;;5065156;28;19912;-55
2022/03/27 06:43:32;;;;;;;;;;;8.70;99.90;;;;;;5065621;28;19904;-53
2022/03/27 06:45:57;;;;;;;;;;;8.70;99.90;;;;;;5065839;28;20093;-54
2022/03/27 06:48:23;;;;;;;;;;;8.80;99.90;;;;;;5065312;28;19961;-53
2022/03/27 06:50:49;;;;;;;;;;;8.90;99.90;;;;;;5066244;28;19999;-53
2022/03/27 06:53:20;;;;;;;;;;;9.00;99.90;;;;;;5064496;28;20364;-51
2022/03/27 06:55:48;;;;;;;;;;;9.10;99.90;;;;;;5068721;28;19919;-50
2022/03/27 06:58:13;;;;;;;;;;;9.10;99.90;;;;;;5069083;28;19904;-54
2022/03/27 07:03:24;;;;;;;;;;;9.30;99.90;;;;;;5069001;28;19915;-55
2022/03/27 07:05:49;;;;;;;;;;;9.40;99.90;;;;;;5090975;22;20592;-53
2022/03/27 07:08:16;;;;;;;;;;;9.40;99.90;;;;;;5068655;28;19919;-49
2022/03/27 07:10:42;;;;;;;;;;;9.40;99.90;;;;;;5070514;28;20280;-50
2022/03/27 07:13:09;;;;;;;;;;;9.40;99.90;;;;;;5069194;28;19943;-51
2022/03/27 07:15:35;;;;;;;;;;;9.50;99.90;;;;;;5069862;28;19912;-52
2022/03/27 07:18:01;;;;;;;;;;;9.50;99.90;;;;;;5069706;28;20195;-48
2022/03/27 07:20:28;;;;;;;;;;;9.60;99.90;;;;;;5068873;28;19912;-51
2022/03/27 07:22:54;;;;;;;;;;;9.60;99.90;;;;;;5068525;28;20399;-49
2022/03/27 07:25:32;;;;;;;;;;;9.70;99.90;;;;;;5069982;28;19915;-48
2022/03/27 07:27:58;;;;;;;;;;;9.70;99.90;;;;;;5069223;28;19908;-50
2022/03/27 07:30:23;;;;;;;;;;;9.80;99.90;;;;;;5069655;28;19916;-50
2022/03/27 07:32:52;;;;;;;;;;;9.80;99.90;;;;;;5068792;28;20407;-48
2022/03/27 07:35:17;;;;;;;;;;;9.90;99.90;;;;;;5068918;28;20426;-50
2022/03/27 07:37:43;;;;;;;;;;;9.90;99.90;;;;;;5069280;28;19908;-51
2022/03/27 07:40:10;;;;;;;;;;;10.00;99.90;;;;;;5069272;28;19912;-49
2022/03/27 07:42:39;;;;;;;;;;;10.10;99.90;;;;;;5069118;28;19912;-48
2022/03/27 07:45:05;;;;;;;;;;;10.10;99.90;;;;;;5068841;28;19991;-48
2022/03/27 07:47:31;;;;;;;;;;;10.00;99.90;;;;;;5069551;28;20048;-50
2022/03/27 07:49:56;;;;;;;;;;;10.00;99.90;;;;;;5068846;28;20411;-54
2022/03/27 07:52:22;;;;;;;;;;;10.10;99.90;;;;;;5067803;28;19917;-52
2022/03/27 07:54:49;;;;;;;;;;;10.20;99.90;;;;;;5069045;28;19954;-52
2022/03/27 07:57:14;;;;;;;;;;;10.30;99.90;;;;;;5068514;28;19991;-52
2022/03/27 07:59:40;;;;;;;;;;;10.30;99.90;;;;;;5069611;28;20061;-52
2022/03/27 08:02:05;;;;;;;;;;;10.40;99.90;;;;;;5068179;28;19959;-51
2022/03/27 08:04:31;;;;;;;;;;;10.30;99.90;;;;;;5068840;28;19905;-54
2022/03/27 08:06:57;;;;;;;;;;;10.40;99.90;;;;;;5067597;28;20364;-52
2022/03/27 08:09:22;;;;;;;;;;;10.50;99.90;;;;;;5068162;28;19916;-49
2022/03/27 08:11:48;;;;;;;;;;;10.60;99.90;;;;;;5067590;28;19908;-50
2022/03/27 08:14:13;;;;;;;;;;;10.60;99.90;;;;;;5068440;28;19961;-51
2022/03/27 08:16:39;;;;;;;;;;;10.50;99.90;;;;;;5068609;28;19912;-51
2022/03/27 08:19:04;;;;;;;;;;;10.40;99.90;;;;;;5068604;28;20381;-51
2022/03/27 08:21:30;;;;;;;;;;;10.50;99.90;;;;;;5067491;28;19912;-50
2022/03/27 08:23:55;;;;;;;;;;;10.60;99.90;;;;;;5068780;28;19912;-50
2022/03/27 08:29:05;;;;;;;;;;;10.90;99.90;;;;;;5068765;28;20334;-50
2022/03/27 08:31:31;;;;;;;;;;;11.00;99.90;;;;;;5068066;28;19995;-52
2022/03/27 08:33:57;;;;;;;;;;;11.00;99.90;;;;;;5067703;28;19908;-53
2022/03/27 08:36:22;;;;;;;;;;;11.10;99.90;;;;;;5066779;28;19960;-51
2022/03/27 08:38:48;;;;;;;;;;;11.30;99.90;;;;;;5068521;28;20415;-51
2022/03/27 08:41:14;;;;;;;;;;;11.40;99.90;;;;;;5066389;28;19947;-51
2022/03/27 08:43:40;;;;;;;;;;;11.50;99.90;;;;;;5068452;28;19912;-52
2022/03/27 08:46:06;;;;;;;;;;;11.60;99.90;;;;;;5067881;28;19916;-52
2022/03/27 08:48:33;;;;;;;;;;;11.70;99.90;;;;;;5067672;28;19908;-53
2022/03/27 08:51:16;;;;;;;;;;;11.70;99.90;;;;;;5068209;28;19908;-50
2022/03/27 08:53:52;;;;;;;;;;;11.70;99.90;;;;;;5067980;28;19954;-53
2022/03/27 08:56:18;;;;;;;;;;;11.70;99.90;;;;;;5066729;28;20369;-52
2022/03/27 08:58:44;;;;;;;;;;;11.70;99.90;;;;;;5067848;28;20117;-49
2022/03/27 09:01:11;;;;;;;;;;;11.70;99.90;;;;;;5066454;28;19913;-49
2022/03/27 09:03:37;;;;;;;;;;;11.50;99.90;;;;;;5066343;28;19912;-52
2022/03/27 09:06:04;;;;;;;;;;;11.60;99.90;;;;;;5068227;28;20007;-52
2022/03/27 09:08:30;;;;;;;;;;;11.60;99.90;;;;;;5066231;28;20273;-49
2022/03/27 09:10:56;;;;;;;;;;;11.50;99.90;;;;;;5067255;28;19952;-52
2022/03/27 09:13:22;;;;;;;;;;;11.60;99.90;;;;;;5066818;28;19947;-52
2022/03/27 09:15:56;;;;;;;;;;;11.60;99.90;;;;;;5067980;28;19926;-52
2022/03/27 09:18:22;;;;;;;;;;;11.60;99.90;;;;;;5066084;28;19916;-52
2022/03/27 09:20:50;;;;;;;;;;;11.70;99.90;;;;;;5068098;28;19909;-53
2022/03/27 09:23:23;;;;;;;;;;;11.70;99.90;;;;;;5066170;28;19966;-52
2022/03/27 09:26:00;;;;;;;;;;;11.90;99.90;;;;;;5067436;28;19912;-52
2022/03/27 09:28:25;;;;;;;;;;;12.00;99.90;;;;;;5066095;28;19981;-52
2022/03/27 09:30:51;;;;;;;;;;;12.10;99.90;;;;;;5066767;28;20349;-49
2022/03/27 09:33:32;;;;;;;;;;;12.20;99.90;;;;;;5067265;28;19987;-48
2022/03/27 09:36:05;;;;;;;;;;;12.20;99.90;;;;;;5066347;28;19914;-49
2022/03/27 09:38:30;;;;;;;;;;;12.30;99.90;;;;;;5066618;28;20360;-51
2022/03/27 09:40:55;;;;;;;;;;;12.40;99.90;;;;;;5067078;28;19967;-52
2022/03/27 09:43:22;;;;;;;;;;;12.40;99.90;;;;;;5065343;28;19916;-52
2022/03/27 09:45:55;;;;;;;;;;;12.60;99.90;;;;;;5067287;28;19999;-51
2022/03/27 09:48:21;;;;;;;;;;;12.60;99.90;;;;;;5066241;28;19916;-51
2022/03/27 09:50:46;;;;;;;;;;;12.60;99.90;;;;;;5066226;28;19904;-52
2022/03/27 09:53:22;;;;;;;;;;;12.60;99.90;;;;;;5065912;28;20003;-53
2022/03/27 09:55:59;;;;;;;;;;;12.70;99.90;;;;;;5067092;28;19904;-49
2022/03/27 09:58:43;;;;;;;;;;;12.80;99.90;;;;;;5065530;28;19923;-49
2022/03/27 10:01:09;;;;;;;;;;;13.00;99.90;;;;;;5066230;28;19908;-50
2022/03/27 10:03:35;;;;;;;;;;;12.90;99.50;;;;;;5065259;28;19915;-53
2022/03/27 10:06:04;;;;;;;;;;;12.90;99.70;;;;;;5065718;28;19920;-55
2022/03/27 10:08:29;;;;;;;;;;;12.90;99.50;;;;;;5065030;28;20003;-51
2022/03/27 10:10:55;;;;;;;;;;;12.90;99.80;;;;;;5065916;28;19991;-51
2022/03/27 10:13:22;;;;;;;;;;;13.10;99.80;;;;;;5065485;28;19912;-49
2022/03/27 10:15:52;;;;;;;;;;;13.10;99.50;;;;;;5066572;28;19999;-49
2022/03/27 10:18:20;;;;;;;;;;;13.20;99.30;;;;;;5065798;28;19908;-51
2022/03/27 10:20:47;;;;;;;;;;;13.20;99.40;;;;;;5066250;28;19953;-49
2022/03/27 10:23:22;;;;;;;;;;;13.30;99.40;;;;;;5065288;28;20311;-53
2022/03/27 10:25:50;;;;;;;;;;;13.40;99.30;;;;;;5065951;28;20420;-51
2022/03/27 10:28:19;;;;;;;;;;;13.60;99.10;;;;;;5065191;28;20381;-52
2022/03/27 10:30:44;;;;;;;;;;;13.70;99.00;;;;;;5065627;28;19909;-53
2022/03/27 10:33:10;;;;;;;;;;;13.80;98.90;;;;;;5064826;28;20062;-53
2022/03/27 10:35:42;;;;;;;;;;;13.90;98.60;;;;;;5066043;28;19904;-54
2022/03/27 10:38:24;;;;;;;;;;;13.90;98.50;;;;;;5065789;28;19993;-49
2022/03/27 10:40:55;;;;;;;;;;;13.80;98.50;;;;;;5065548;28;19916;-49
2022/03/27 10:43:39;;;;;;;;;;;13.90;98.70;;;;;;5064364;28;20353;-52
2022/03/27 10:46:16;;;;;;;;;;;14.00;98.50;;;;;;5065587;28;20373;-54
2022/03/27 10:48:42;;;;;;;;;;;14.00;98.40;;;;;;5065345;28;19958;-50
2022/03/27 10:51:28;;;;;;;;;;;14.10;98.30;;;;;;5066131;28;20249;-56
2022/03/27 10:54:06;;;;;;;;;;;14.10;98.10;;;;;;5055322;28;19912;-50
2022/03/27 10:56:43;;;;;;;;;;;14.10;98.40;;;;;;5066176;28;19905;-50
2022/03/27 10:59:08;;;;;;;;;;;14.20;98.30;;;;;;5065601;28;19947;-50
2022/03/27 11:01:44;;;;;;;;;;;14.40;98.00;;;;;;5065037;28;20373;-50
2022/03/27 11:04:17;;;;;;;;;;;14.50;98.10;;;;;;5064280;28;19908;-53
2022/03/27 11:06:46;;;;;;;;;;;14.50;98.20;;;;;;5065186;28;19962;-50
2022/03/27 11:09:32;;;;;;;;;;;14.60;97.70;;;;;;5064896;28;19911;-53
2022/03/27 11:11:58;;;;;;;;;;;14.40;97.60;;;;;;5065205;28;20391;-50
2022/03/27 11:14:43;;;;;;;;;;;14.30;97.60;;;;;;5065699;28;19912;-51
2022/03/27 11:17:09;;;;;;;;;;;14.20;97.80;;;;;;5065402;28;19904;-52
2022/03/27 11:19:45;;;;;;;;;;;14.00;98.00;;;;;;5066064;28;19912;-50
2022/03/27 11:22:29;;;;;;;;;;;14.00;98.20;;;;;;5064532;28;19912;-49
2022/03/27 11:25:13;;;;;;;;;;;14.10;98.10;;;;;;5065111;28;20257;-50
2022/03/27 11:27:54;;;;;;;;;;;14.10;98.10;;;;;;5065781;28;20339;-49
2022/03/27 11:30:20;;;;;;;;;;;14.00;98.00;;;;;;5066415;28;19944;-51
2022/03/27 11:33:04;;;;;;;;;;;14.00;98.20;;;;;;5064639;28;20009;-54
2022/03/27 11:35:29;;;;;;;;;;;14.00;98.20;;;;;;5066992;28;19908;-56
2022/03/27 11:38:14;;;;;;;;;;;13.90;98.30;;;;;;5065739;28;19908;-50
2022/03/27 11:40:40;;;;;;;;;;;13.80;98.20;;;;;;5067848;28;20330;-53
2022/03/27 11:43:24;;;;;;;;;;;13.80;98.60;;;;;;5069300;28;19941;-50
2022/03/27 11:45:50;;;;;;;;;;;13.90;98.40;;;;;;5069020;28;20372;-49
2022/03/27 11:48:16;;;;;;;;;;;13.90;98.40;;;;;;5068840;28;19904;-50
2022/03/27 11:50:42;;;;;;;;;;;14.00;98.40;;;;;;5071004;28;19944;-54
2022/03/27 11:53:07;;;;;;;;;;;14.10;98.30;;;;;;5069212;28;19947;-51
2022/03/27 11:55:33;;;;;;;;;;;14.20;98.00;;;;;;5070343;28;19915;-53
2022/03/27 11:58:00;;;;;;;;;;;14.10;97.90;;;;;;5068554;28;19908;-54
2022/03/27 12:00:31;;;;;;;;;;;14.00;98.00;;;;;;5069595;28;20319;-52
2022/03/27 12:02:57;;;;;;;;;;;13.80;98.20;;;;;;5068796;28;19908;-53
2022/03/27 12:05:31;;;;;;;;;;;13.80;98.40;;;;;;5069232;28;20294;-52
2022/03/27 12:07:56;;;;;;;;;;;13.70;98.50;;;;;;5068851;28;19915;-51
2022/03/27 12:10:23;;;;;;;;;;;13.60;98.50;;;;;;5069524;28;19991;-50
2022/03/27 12:15:18;;;;;;;49.53;29.67;;;13.60;98.50;;;;;;5084871;27;20304;-53
2022/03/27 12:17:45;;;;;;;50.50;29.02;;;13.50;98.90;;;;;;5084179;28;20496;-49
2022/03/27 12:20:12;;;;;;;47.53;27.73;;;13.80;99.00;;;;;;5084094;28;20031;-50
2022/03/27 12:22:44;;;;;;;57.50;31.88;;;14.00;98.60;;;;;;5083401;28;20067;-49
2022/03/27 12:25:20;;;;;;;51.90;28.98;;;14.00;98.20;;;;;;5084138;28;20060;-53
2022/03/27 12:30:49;;;;;;;48.55;26.85;;;13.60;98.50;;;;;;5083332;28;20635;-50
2022/03/27 12:33:19;;;;;;;49.55;28.58;;;13.60;98.70;;;;;;5083496;28;20085;-54
2022/03/27 12:35:45;;;;;;;51.25;29.55;;;13.60;98.80;;;;;;5082545;28;20028;-52
2022/03/27 12:38:10;;;;;;;;;;;13.80;98.70;;;;;;5081979;28;20026;-49
2022/03/27 12:40:44;;;;;;;48.35;26.85;;;13.90;98.50;;;;;;5082732;28;19919;-54
2022/03/27 12:43:11;;;;;;;47.92;28.70;;;14.00;98.60;;;;;;5083762;28;20056;-50
2022/03/27 12:45:40;;;;;;;50.92;30.70;;;13.90;98.20;;;;;;5083424;28;20113;-52
2022/03/27 12:48:18;;;;;;;54.70;30.40;;;13.90;98.40;;;;;;5083581;28;20067;-54
2022/03/27 12:50:46;;;;;;;52.05;30.45;;;13.90;98.50;;;;;;5083212;28;20024;-49
2022/03/27 12:53:19;;;;;;;67.05;37.97;;;14.00;98.60;;;;;;5082949;28;20028;-49
2022/03/27 12:55:50;;;;;;;64.25;34.38;;;14.10;98.40;;;;;;5082164;28;20540;-50
2022/03/27 12:58:18;;;;;;;59.75;33.90;;;14.10;98.20;;;;;;5082806;28;20074;-49
2022/03/27 13:00:45;;;;;;;56.80;33.00;;;14.00;98.30;;;;;;5083191;28;20024;-51
2022/03/27 13:03:15;;;;;;;56.05;30.35;;;13.90;98.50;;;;;;5082902;28;20394;-53
2022/03/27 13:05:42;;;;;;;57.83;31.70;;;14.00;98.60;;;;;;5086765;22;20037;-56
2022/03/27 13:08:08;;;;;;;59.10;31.83;;;14.10;98.40;;;;;;5060305;28;20111;-54
2022/03/27 13:10:37;;;;;;;55.72;31.95;;;14.10;98.30;;;;;;5047566;28;20371;-52
2022/03/27 13:13:05;;;;;;;60.88;34.08;;;14.10;98.30;;;;;;5055958;28;20032;-54
2022/03/27 13:15:38;;;;;;;55.05;31.23;;;14.10;98.20;;;;;;5043005;28;20021;-55
2022/03/27 13:18:16;;;;;;;52.30;29.38;;;14.10;98.20;;;;;;5045555;28;20017;-56
2022/03/27 13:20:42;;;;;;;56.47;29.88;;;14.30;98.40;;;;;;5047801;28;20047;-58
2022/03/27 13:23:09;;;;;;;;;;;14.40;98.20;;;;;;5045439;28;20108;-58
2022/03/27 13:25:35;;;;;;;51.25;29.88;;;14.60;97.90;;;;;;5038992;28;19916;-58
2022/03/27 13:28:01;;;;;;;54.28;33.05;;;14.70;97.90;;;;;;5037851;28;20029;-56
2022/03/27 13:30:27;;;;;;;45.03;28.23;;;14.80;97.70;;;;;;5029609;28;20048;-56
2022/03/27 13:32:55;;;;;;;;;;;14.70;97.20;;;;;;5033674;28;20479;-56
2022/03/27 13:35:20;;;;;;;52.88;29.17;;;14.60;97.10;;;;;;5031214;28;19919;-55
2022/03/27 13:37:47;;;;;;;;;;;14.50;97.50;;;;;;5041552;28;20029;-56
2022/03/27 13:40:13;;;;;;;54.85;28.42;;;14.50;97.60;;;;;;5038725;28;19909;-57
2022/03/27 13:45:29;;;;;;;54.70;28.45;;;14.60;97.50;;;;;;5032050;28;20419;-56
2022/03/27 13:47:56;;;;;;;52.92;27.65;;;14.70;97.20;;;;;;5029505;28;20026;-55
2022/03/27 13:50:24;;;;;;;54.15;28.98;;;14.70;97.00;;;;;;5033541;28;20117;-56
2022/03/27 13:52:50;;;;;;;48.03;27.38;;;14.70;97.10;;;;;;5032225;28;20100;-56
2022/03/27 13:55:16;;;;;;;45.28;25.00;;;14.60;97.20;;;;;;5033171;28;20132;-57
2022/03/27 13:57:41;;;;;;;44.63;25.23;;;14.50;97.10;;;;;;5034038;28;20045;-57
2022/03/27 14:00:07;;;;;;;;;;;14.60;97.10;;;;;;5039073;28;20035;-55
2022/03/27 14:02:32;;;;;;;43.88;19.10;;;14.50;96.70;;;;;;5029378;28;19913;-56
2022/03/27 14:04:58;;;;;;;;;;;14.40;96.60;;;;;;5029294;28;20293;-54
2022/03/27 14:07:24;;;;;;;38.15;19.85;;;14.40;96.50;;;;;;5037442;28;19909;-55
2022/03/27 14:09:50;;;;;;;;;;;14.40;96.60;;;;;;5033989;28;20033;-56
2022/03/27 14:12:15;;;;;;;33.33;17.85;;;14.40;96.70;;;;;;5036998;28;19967;-54
2022/03/27 14:14:41;;;;;;;;;;;14.40;96.50;;;;;;5029314;28;20341;-55
2022/03/27 14:17:08;;;;;;;28.20;14.35;;;14.40;96.00;;;;;;5028511;28;20285;-54
2022/03/27 14:19:34;;;;;;;31.77;15.43;;;14.40;95.80;;;;;;5031060;28;20033;-54
2022/03/27 14:22:02;;;;;;;26.77;15.90;;;14.40;95.60;;;;;;5028464;28;20033;-57
2022/03/27 14:24:28;;;;;;;28.52;14.63;;;14.40;95.30;;;;;;5029002;28;20033;-56